Time,TemperatureF,DewpointF,PressureIn,WindDirection,WindDirectionDegrees,WindSpeedMPH,WindSpeedGustMPH,Humidity,HourlyPrecipIn,Conditions,Clouds,dailyrainin,SoftwareType,DateUTC
2013-04-28 00:01:00,55.6,53.3,29.87,WNW,282,0.0,2.0,92,0.00,,OVC085,0.00,VWS V14.01,2013-04-28 05:01:00,
2013-04-28 00:11:00,55.1,52.8,29.87,WNW,282,0.0,0.0,92,0.00,,OVC085,0.00,VWS V14.01,2013-04-28 05:11:00,
2013-04-28 00:16:00,55.0,52.7,29.87,WNW,282,0.0,0.0,92,0.00,,OVC085,0.00,VWS V14.01,2013-04-28 05:16:00,
2013-04-28 00:21:00,54.8,52.5,29.87,WNW,282,0.0,0.0,92,0.00,,OVC085,0.00,VWS V14.01,2013-04-28 05:21:00,
2013-04-28 00:26:00,54.7,52.4,29.87,WNW,282,1.0,2.0,92,0.00,,OVC085,0.00,VWS V14.01,2013-04-28 05:26:00,
2013-04-28 00:31:00,54.4,52.1,29.87,WNW,282,0.0,2.0,92,0.00,,OVC085,0.00,VWS V14.01,2013-04-28 05:31:00,
2013-04-28 00:36:00,53.9,51.6,29.87,WNW,282,0.0,0.0,92,0.00,,OVC085,0.00,VWS V14.01,2013-04-28 05:36:00,
2013-04-28 00:41:00,53.9,51.6,29.87,WNW,282,0.0,1.0,92,0.00,,OVC085,0.00,VWS V14.01,2013-04-28 05:41:00,
2013-04-28 00:46:00,53.9,51.6,29.87,WNW,282,0.0,0.0,92,0.00,,OVC085,0.00,VWS V14.01,2013-04-28 05:46:00,
2013-04-28 00:51:00,53.9,51.6,29.87,WNW,282,0.0,0.0,92,0.00,,SCT080,0.00,VWS V14.01,2013-04-28 05:51:00,
2013-04-28 00:56:00,53.8,51.5,29.87,WNW,282,0.0,0.0,92,0.00,,SCT080,0.00,VWS V14.01,2013-04-28 05:56:00,
2013-04-28 01:06:00,53.2,50.9,29.88,WNW,282,0.0,1.0,92,0.00,,SCT080,0.00,VWS V14.01,2013-04-28 06:06:00,
2013-04-28 01:11:00,52.9,50.6,29.88,WNW,282,0.0,1.0,92,0.00,,SCT080,0.00,VWS V14.01,2013-04-28 06:11:00,
2013-04-28 01:16:00,52.9,50.6,29.88,WNW,282,0.0,0.0,92,0.00,,SCT080,0.00,VWS V14.01,2013-04-28 06:16:00,
2013-04-28 01:21:00,52.9,50.6,29.88,WNW,282,0.0,0.0,92,0.00,,SCT080,0.00,VWS V14.01,2013-04-28 06:21:00,
2013-04-28 01:26:00,52.9,50.6,29.88,WNW,282,0.0,0.0,92,0.00,,SCT080,0.00,VWS V14.01,2013-04-28 06:26:00,
2013-04-28 01:31:00,52.9,50.6,29.88,WNW,282,0.0,0.0,92,0.00,,SCT080,0.00,VWS V14.01,2013-04-28 06:31:00,
2013-04-28 01:36:00,52.9,50.6,29.88,WNW,282,0.0,0.0,92,0.00,,SCT080,0.00,VWS V14.01,2013-04-28 06:36:00,
2013-04-28 01:41:00,52.9,50.6,29.88,WNW,282,0.0,0.0,92,0.00,,SCT080,0.00,VWS V14.01,2013-04-28 06:41:00,
2013-04-28 01:46:00,52.9,50.6,29.87,WNW,282,0.0,0.0,92,0.00,,SCT080,0.00,VWS V14.01,2013-04-28 06:46:00,
2013-04-28 01:56:00,52.8,50.5,29.87,WNW,282,0.0,0.0,92,0.00,,BKN011,0.00,VWS V14.01,2013-04-28 06:56:00,
2013-04-28 02:06:00,52.6,50.3,29.87,WNW,282,0.0,0.0,92,0.00,,BKN011,0.00,VWS V14.01,2013-04-28 07:06:00,
2013-04-28 02:11:00,52.6,50.3,29.87,WNW,282,0.0,0.0,92,0.00,,BKN011,0.00,VWS V14.01,2013-04-28 07:11:00,
2013-04-28 02:16:00,52.8,50.5,29.87,WNW,282,0.0,0.0,92,0.00,,BKN011,0.00,VWS V14.01,2013-04-28 07:16:00,
2013-04-28 02:21:00,52.9,50.9,29.87,WNW,282,0.0,0.0,93,0.00,,BKN011,0.00,VWS V14.01,2013-04-28 07:21:00,
2013-04-28 02:26:00,53.2,51.2,29.87,WNW,282,0.0,1.0,93,0.00,,BKN011,0.00,VWS V14.01,2013-04-28 07:26:00,
2013-04-28 02:31:00,53.1,50.8,29.87,WNW,282,0.0,0.0,92,0.00,,BKN011,0.00,VWS V14.01,2013-04-28 07:31:00,
2013-04-28 02:36:00,53.2,51.2,29.87,WNW,282,0.0,0.0,93,0.00,,BKN011,0.00,VWS V14.01,2013-04-28 07:36:00,
2013-04-28 02:41:00,53.5,51.5,29.87,West,281,3.0,4.0,93,0.00,,BKN011,0.00,VWS V14.01,2013-04-28 07:41:00,
2013-04-28 02:46:00,53.8,51.8,29.87,West,281,2.0,3.0,93,0.00,,BKN011,0.00,VWS V14.01,2013-04-28 07:46:00,
2013-04-28 02:56:00,53.8,51.8,29.87,WNW,292,3.0,3.0,93,0.00,,OVC011,0.00,VWS V14.01,2013-04-28 07:56:00,
2013-04-28 03:06:00,53.8,51.8,29.86,West,281,7.0,7.0,93,0.00,,OVC011,0.00,VWS V14.01,2013-04-28 08:06:00,
2013-04-28 03:11:00,53.8,51.8,29.86,WNW,303,4.0,7.0,93,0.00,,OVC011,0.00,VWS V14.01,2013-04-28 08:11:00,
2013-04-28 03:16:00,53.6,51.3,29.86,WNW,298,5.0,6.0,92,0.00,,OVC011,0.00,VWS V14.01,2013-04-28 08:16:00,
2013-04-28 03:21:00,53.6,51.3,29.86,NW,320,2.0,7.0,92,0.00,,OVC015,0.00,VWS V14.01,2013-04-28 08:21:00,
2013-04-28 03:31:00,53.5,51.2,29.85,NW,324,2.0,7.0,92,0.00,,OVC015,0.00,VWS V14.01,2013-04-28 08:31:00,
2013-04-28 03:36:00,53.3,51.0,29.85,NW,324,0.0,6.0,92,0.00,,OVC015,0.00,VWS V14.01,2013-04-28 08:36:00,
2013-04-28 03:46:00,53.3,51.0,29.85,NW,325,0.0,5.0,92,0.00,,OVC015,0.00,VWS V14.01,2013-04-28 08:46:00,
2013-04-28 03:56:00,53.5,50.9,29.85,WNW,292,1.0,5.0,91,0.00,,OVC017,0.00,VWS V14.01,2013-04-28 08:56:00,
2013-04-28 04:01:00,53.6,51.0,29.85,NW,309,3.0,4.0,91,0.00,,OVC017,0.00,VWS V14.01,2013-04-28 09:01:00,
2013-04-28 04:11:00,53.6,50.7,29.85,NW,311,3.0,3.0,90,0.00,,OVC017,0.00,VWS V14.01,2013-04-28 09:11:00,
2013-04-28 04:21:00,53.6,50.7,29.85,NW,311,0.0,2.0,90,0.00,,OVC017,0.00,VWS V14.01,2013-04-28 09:21:00,
2013-04-28 04:31:00,53.6,50.7,29.85,NW,311,0.0,0.0,90,0.00,,OVC017,0.00,VWS V14.01,2013-04-28 09:31:00,
2013-04-28 04:36:00,53.6,50.7,29.85,NW,311,0.0,0.0,90,0.00,,OVC017,0.00,VWS V14.01,2013-04-28 09:36:00,
2013-04-28 04:41:00,53.6,50.7,29.85,NW,311,0.0,1.0,90,0.00,,OVC017,0.00,VWS V14.01,2013-04-28 09:41:00,
2013-04-28 04:51:00,53.6,50.7,29.85,NW,311,0.0,2.0,90,0.00,,OVC017,0.00,VWS V14.01,2013-04-28 09:51:00,
2013-04-28 05:01:00,53.6,50.7,29.86,NW,311,0.0,1.0,90,0.00,,OVC017,0.00,VWS V14.01,2013-04-28 10:01:00,
2013-04-28 05:06:00,53.5,50.6,29.86,NW,311,1.0,1.0,90,0.00,,OVC017,0.00,VWS V14.01,2013-04-28 10:06:00,
2013-04-28 05:16:00,53.6,51.0,29.86,NW,311,0.0,2.0,91,0.00,,OVC017,0.00,VWS V14.01,2013-04-28 10:16:00,
2013-04-28 05:26:00,53.5,50.9,29.86,NW,311,0.0,1.0,91,0.00,,OVC017,0.00,VWS V14.01,2013-04-28 10:26:00,
2013-04-28 05:31:00,53.5,50.9,29.87,NW,311,0.0,0.0,91,0.00,,OVC017,0.00,VWS V14.01,2013-04-28 10:31:00,
2013-04-28 05:36:00,53.5,50.9,29.87,NW,311,0.0,0.0,91,0.00,,OVC017,0.00,VWS V14.01,2013-04-28 10:36:00,
2013-04-28 05:46:00,53.5,50.9,29.87,NW,311,0.0,2.0,91,0.00,,OVC017,0.00,VWS V14.01,2013-04-28 10:46:00,
2013-04-28 05:51:00,53.5,50.9,29.87,NW,311,0.0,3.0,91,0.00,,OVC050,0.00,VWS V14.01,2013-04-28 10:51:00,
2013-04-28 05:56:00,53.5,50.9,29.87,NW,309,1.0,3.0,91,0.00,,OVC050,0.00,VWS V14.01,2013-04-28 10:56:00,
2013-04-28 06:06:00,53.5,50.6,29.87,West,280,1.0,4.0,90,0.00,,OVC050,0.00,VWS V14.01,2013-04-28 11:06:00,
2013-04-28 06:16:00,53.5,50.6,29.87,West,280,0.0,2.0,90,0.00,,OVC050,0.00,VWS V14.01,2013-04-28 11:16:00,
2013-04-28 06:21:00,53.5,50.6,29.87,West,271,1.0,4.0,90,0.00,,OVC050,0.00,VWS V14.01,2013-04-28 11:21:00,
2013-04-28 06:26:00,53.5,50.6,29.87,West,271,0.0,1.0,90,0.00,,OVC050,0.00,VWS V14.01,2013-04-28 11:26:00,
2013-04-28 06:31:00,53.5,50.6,29.88,West,271,0.0,2.0,90,0.00,,OVC050,0.00,VWS V14.01,2013-04-28 11:31:00,
2013-04-28 06:41:00,53.5,50.6,29.88,West,271,0.0,3.0,90,0.00,,OVC050,0.00,VWS V14.01,2013-04-28 11:41:00,
2013-04-28 06:51:00,53.5,50.6,29.88,West,271,0.0,3.0,90,0.00,,OVC015,0.00,VWS V14.01,2013-04-28 11:51:00,
2013-04-28 07:01:00,53.6,50.7,29.89,West,271,2.0,2.0,90,0.00,,OVC015,0.00,VWS V14.01,2013-04-28 12:01:00,
2013-04-28 07:11:00,53.8,50.6,29.89,West,271,2.0,3.0,89,0.00,,OVC015,0.00,VWS V14.01,2013-04-28 12:11:00,
2013-04-28 07:21:00,53.8,50.6,29.90,West,271,0.0,1.0,89,0.00,,OVC015,0.00,VWS V14.01,2013-04-28 12:21:00,
2013-04-28 07:31:00,53.9,50.7,29.90,West,271,2.0,3.0,89,0.00,,OVC015,0.00,VWS V14.01,2013-04-28 12:31:00,
2013-04-28 07:36:00,54.1,50.9,29.90,West,271,0.0,2.0,89,0.00,,OVC013,0.00,VWS V14.01,2013-04-28 12:36:00,
2013-04-28 07:41:00,54.2,51.0,29.90,West,271,2.0,2.0,89,0.00,,OVC013,0.00,VWS V14.01,2013-04-28 12:41:00,
2013-04-28 07:46:00,54.2,51.0,29.91,West,265,0.0,4.0,89,0.00,,OVC013,0.00,VWS V14.01,2013-04-28 12:46:00,
2013-04-28 07:51:00,54.4,51.2,29.91,West,265,0.0,3.0,89,0.00,,OVC013,0.00,VWS V14.01,2013-04-28 12:51:00,
2013-04-28 08:01:00,54.4,51.2,29.91,SW,227,2.0,4.0,89,0.00,,OVC013,0.00,VWS V14.01,2013-04-28 13:01:00,
2013-04-28 08:11:00,54.5,51.3,29.91,SW,227,0.0,4.0,89,0.00,,OVC047,0.00,VWS V14.01,2013-04-28 13:11:00,
2013-04-28 08:16:00,54.5,51.3,29.91,SW,227,1.0,5.0,89,0.00,,OVC047,0.00,VWS V14.01,2013-04-28 13:16:00,
2013-04-28 08:21:00,54.5,51.3,29.91,SW,227,0.0,4.0,89,0.00,,OVC047,0.00,VWS V14.01,2013-04-28 13:21:00,
2013-04-28 08:26:00,54.5,51.3,29.91,SW,227,0.0,4.0,89,0.00,,OVC047,0.00,VWS V14.01,2013-04-28 13:26:00,
2013-04-28 08:31:00,54.7,51.5,29.91,SW,227,3.0,4.0,89,0.00,,OVC047,0.00,VWS V14.01,2013-04-28 13:31:00,
2013-04-28 08:41:00,54.8,51.6,29.91,SW,226,3.0,4.0,89,0.00,,OVC047,0.00,VWS V14.01,2013-04-28 13:41:00,
2013-04-28 08:46:00,55.0,51.8,29.91,SW,228,2.0,3.0,89,0.00,,OVC047,0.00,VWS V14.01,2013-04-28 13:46:00,
2013-04-28 08:56:00,55.3,51.8,29.91,SW,229,3.0,5.0,88,0.00,,OVC047,0.00,VWS V14.01,2013-04-28 13:56:00,
2013-04-28 09:06:00,55.4,51.6,29.91,West,264,4.0,5.0,87,0.00,,OVC047,0.00,VWS V14.01,2013-04-28 14:06:00,
2013-04-28 09:16:00,55.7,51.3,29.90,West,272,4.0,7.0,85,0.00,,OVC047,0.00,VWS V14.01,2013-04-28 14:16:00,
2013-04-28 09:21:00,55.9,51.1,29.90,WSW,256,3.0,7.0,84,0.00,,OVC047,0.00,VWS V14.01,2013-04-28 14:21:00,
2013-04-28 09:26:00,56.0,51.2,29.90,WSW,251,4.0,7.0,84,0.00,,OVC047,0.00,VWS V14.01,2013-04-28 14:26:00,
2013-04-28 09:31:00,56.2,51.4,29.90,NW,313,3.0,5.0,84,0.00,,OVC047,0.00,VWS V14.01,2013-04-28 14:31:00,
2013-04-28 09:36:00,56.3,51.2,29.90,West,272,2.0,5.0,83,0.00,,OVC047,0.00,VWS V14.01,2013-04-28 14:36:00,
2013-04-28 09:41:00,56.5,51.4,29.90,NW,304,3.0,5.0,83,0.00,,OVC047,0.00,VWS V14.01,2013-04-28 14:41:00,
2013-04-28 09:46:00,56.5,51.1,29.91,WSW,254,3.0,6.0,82,0.00,,OVC047,0.00,VWS V14.01,2013-04-28 14:46:00,
2013-04-28 09:51:00,56.5,51.1,29.91,West,268,5.0,7.0,82,0.00,,OVC047,0.00,VWS V14.01,2013-04-28 14:51:00,
2013-04-28 09:56:00,56.7,50.9,29.91,West,279,3.0,8.0,81,0.00,,OVC047,0.00,VWS V14.01,2013-04-28 14:56:00,
2013-04-28 10:01:00,57.0,51.2,29.91,West,261,7.0,7.0,81,0.00,,OVC047,0.00,VWS V14.01,2013-04-28 15:01:00,
2013-04-28 10:06:00,57.5,51.4,29.91,WNW,296,4.0,7.0,80,0.00,,OVC047,0.00,VWS V14.01,2013-04-28 15:06:00,
2013-04-28 10:16:00,57.6,51.1,29.91,West,271,3.0,8.0,79,0.00,,OVC047,0.00,VWS V14.01,2013-04-28 15:16:00,
2013-04-28 10:26:00,57.5,51.4,29.91,WNW,302,2.0,5.0,80,0.00,,OVC047,0.00,VWS V14.01,2013-04-28 15:26:00,
2013-04-28 10:36:00,58.3,51.1,29.91,NW,317,6.0,7.0,77,0.00,,OVC017,0.00,VWS V14.01,2013-04-28 15:36:00,
2013-04-28 10:41:00,58.7,51.2,29.91,NNW,328,5.0,9.0,76,0.00,,OVC017,0.00,VWS V14.01,2013-04-28 15:41:00,
2013-04-28 10:46:00,59.0,51.1,29.90,NW,317,2.0,11.0,75,0.00,,OVC017,0.00,VWS V14.01,2013-04-28 15:46:00,
2013-04-28 10:56:00,59.5,51.2,29.90,WSW,249,1.0,8.0,74,0.00,,OVC017,0.00,VWS V14.01,2013-04-28 15:56:00,
2013-04-28 11:06:00,59.5,51.6,29.90,WNW,282,5.0,8.0,75,0.00,,OVC017,0.00,VWS V14.01,2013-04-28 16:06:00,
2013-04-28 11:11:00,59.8,51.5,29.90,NNW,343,7.0,8.0,74,0.00,,OVC017,0.00,VWS V14.01,2013-04-28 16:11:00,
2013-04-28 11:16:00,60.2,51.5,29.90,WNW,284,6.0,11.0,73,0.00,,OVC017,0.00,VWS V14.01,2013-04-28 16:16:00,
2013-04-28 11:26:00,60.5,51.4,29.90,WNW,284,4.0,10.0,72,0.00,,OVC017,0.00,VWS V14.01,2013-04-28 16:26:00,
2013-04-28 11:31:00,60.5,51.4,29.90,NW,311,10.0,11.0,72,0.00,,OVC017,0.00,VWS V14.01,2013-04-28 16:31:00,
2013-04-28 11:36:00,60.4,52.1,29.90,NW,306,6.0,10.0,74,0.00,,OVC017,0.00,VWS V14.01,2013-04-28 16:36:00,
2013-04-28 11:41:00,60.9,51.5,29.90,WNW,299,3.0,13.0,71,0.00,,OVC017,0.00,VWS V14.01,2013-04-28 16:41:00,
2013-04-28 11:46:00,60.9,52.2,29.90,West,279,7.0,9.0,73,0.00,,OVC017,0.00,VWS V14.01,2013-04-28 16:46:00,
2013-04-28 11:56:00,60.5,51.4,29.90,West,271,4.0,10.0,72,0.00,,OVC021,0.00,VWS V14.01,2013-04-28 16:56:00,
2013-04-28 12:01:00,60.5,51.4,29.90,NW,313,2.0,11.0,72,0.00,,OVC021,0.00,VWS V14.01,2013-04-28 17:01:00,
2013-04-28 12:06:00,60.7,52.0,29.90,NNW,331,6.0,11.0,73,0.00,,OVC021,0.00,VWS V14.01,2013-04-28 17:06:00,
2013-04-28 12:16:00,61.5,51.6,29.90,NW,308,3.0,10.0,70,0.00,,OVC021,0.00,VWS V14.01,2013-04-28 17:16:00,
2013-04-28 12:21:00,61.2,51.7,29.90,NW,318,4.0,11.0,71,0.00,,OVC021,0.00,VWS V14.01,2013-04-28 17:21:00,
2013-04-28 12:26:00,61.3,51.5,29.90,WNW,298,3.0,8.0,70,0.00,,OVC021,0.00,VWS V14.01,2013-04-28 17:26:00,
2013-04-28 12:36:00,62.0,51.7,29.89,WNW,286,5.0,9.0,69,0.00,,OVC021,0.00,VWS V14.01,2013-04-28 17:36:00,
2013-04-28 12:46:00,61.5,52.0,29.90,NW,313,7.0,9.0,71,0.00,,OVC021,0.00,VWS V14.01,2013-04-28 17:46:00,
2013-04-28 12:51:00,61.5,51.6,29.90,NW,321,6.0,9.0,70,0.00,,OVC044,0.00,VWS V14.01,2013-04-28 17:51:00,
2013-04-28 12:56:00,61.6,51.7,29.90,NW,325,6.0,9.0,70,0.00,,OVC044,0.00,VWS V14.01,2013-04-28 17:56:00,
2013-04-28 13:01:00,61.8,51.5,29.90,WNW,293,3.0,9.0,69,0.00,,OVC044,0.00,VWS V14.01,2013-04-28 18:01:00,
2013-04-28 13:06:00,62.3,51.2,29.90,NW,321,6.0,8.0,67,0.00,,OVC044,0.00,VWS V14.01,2013-04-28 18:06:00,
2013-04-28 13:16:00,63.2,52.9,29.90,NW,320,2.0,8.0,69,0.00,,OVC044,0.00,VWS V14.01,2013-04-28 18:16:00,
2013-04-28 13:21:00,63.2,51.7,29.90,WNW,295,4.0,10.0,66,0.00,,OVC044,0.00,VWS V14.01,2013-04-28 18:21:00,
2013-04-28 13:31:00,63.2,52.1,29.90,NNW,327,3.0,9.0,67,0.00,,OVC044,0.00,VWS V14.01,2013-04-28 18:31:00,
2013-04-28 13:36:00,62.9,51.0,29.90,West,269,5.0,9.0,65,0.00,,OVC044,0.00,VWS V14.01,2013-04-28 18:36:00,
2013-04-28 13:46:00,63.1,51.2,29.90,West,263,4.0,7.0,65,0.00,,OVC044,0.00,VWS V14.01,2013-04-28 18:46:00,
2013-04-28 13:51:00,62.7,51.6,29.90,West,260,0.0,8.0,67,0.00,,OVC048,0.00,VWS V14.01,2013-04-28 18:51:00,
2013-04-28 14:01:00,63.2,52.1,29.90,WNW,294,2.0,8.0,67,0.00,,OVC048,0.00,VWS V14.01,2013-04-28 19:01:00,
2013-04-28 14:06:00,62.7,51.6,29.90,WNW,293,2.0,7.0,67,0.00,,OVC048,0.00,VWS V14.01,2013-04-28 19:06:00,
2013-04-28 14:16:00,62.4,52.1,29.90,NNW,331,6.0,8.0,69,0.00,,OVC048,0.00,VWS V14.01,2013-04-28 19:16:00,
2013-04-28 14:21:00,62.1,52.2,29.90,NW,323,2.0,6.0,70,0.00,,OVC048,0.00,VWS V14.01,2013-04-28 19:21:00,
2013-04-28 14:31:00,62.0,51.7,29.90,NNW,327,4.0,6.0,69,0.00,,OVC048,0.00,VWS V14.01,2013-04-28 19:31:00,
2013-04-28 14:36:00,62.1,51.4,29.90,North,355,4.0,5.0,68,0.00,,OVC048,0.00,VWS V14.01,2013-04-28 19:36:00,
2013-04-28 14:46:00,62.4,51.7,29.89,NNW,333,2.0,4.0,68,0.00,,OVC048,0.00,VWS V14.01,2013-04-28 19:46:00,
2013-04-28 14:51:00,62.4,51.7,29.89,NNW,343,2.0,5.0,68,0.00,,BKN047,0.00,VWS V14.01,2013-04-28 19:51:00,
2013-04-28 14:56:00,62.7,52.0,29.89,NNW,335,2.0,6.0,68,0.00,,BKN047,0.00,VWS V14.01,2013-04-28 19:56:00,
2013-04-28 15:01:00,62.6,51.9,29.89,WNW,298,4.0,7.0,68,0.00,,BKN047,0.00,VWS V14.01,2013-04-28 20:01:00,
2013-04-28 15:06:00,62.3,51.6,29.89,NW,313,5.0,7.0,68,0.00,,BKN047,0.00,VWS V14.01,2013-04-28 20:06:00,
2013-04-28 15:11:00,62.3,52.0,29.89,NW,323,3.0,7.0,69,0.00,,BKN047,0.00,VWS V14.01,2013-04-28 20:11:00,
2013-04-28 15:16:00,62.3,52.0,29.88,WNW,285,3.0,7.0,69,0.00,,BKN047,0.00,VWS V14.01,2013-04-28 20:16:00,
2013-04-28 15:26:00,61.8,51.9,29.88,NW,322,2.0,7.0,70,0.00,,BKN047,0.00,VWS V14.01,2013-04-28 20:26:00,
2013-04-28 15:31:00,61.8,52.3,29.88,West,260,4.0,7.0,71,0.00,,BKN047,0.00,VWS V14.01,2013-04-28 20:31:00,
2013-04-28 15:41:00,61.6,51.3,29.88,NW,322,1.0,5.0,69,0.00,,BKN047,0.00,VWS V14.01,2013-04-28 20:41:00,
2013-04-28 15:51:00,61.8,51.5,29.87,NW,322,3.0,4.0,69,0.00,,BKN047,0.00,VWS V14.01,2013-04-28 20:51:00,
2013-04-28 16:01:00,62.0,51.3,29.87,NW,322,2.0,4.0,68,0.00,,BKN047,0.00,VWS V14.01,2013-04-28 21:01:00,
2013-04-28 16:06:00,62.0,51.7,29.87,NW,322,1.0,2.0,69,0.00,,FEW029,0.00,VWS V14.01,2013-04-28 21:06:00,
2013-04-28 16:16:00,61.8,51.1,29.87,NW,322,0.0,1.0,68,0.00,,FEW029,0.00,VWS V14.01,2013-04-28 21:16:00,
2013-04-28 16:21:00,62.1,51.4,29.87,NW,322,0.0,2.0,68,0.00,,FEW029,0.00,VWS V14.01,2013-04-28 21:21:00,
2013-04-28 16:26:00,62.4,51.3,29.87,NW,322,0.0,0.0,67,0.00,,FEW029,0.00,VWS V14.01,2013-04-28 21:26:00,
2013-04-28 16:36:00,63.1,51.6,29.87,NW,322,1.0,2.0,66,0.00,,FEW029,0.00,VWS V14.01,2013-04-28 21:36:00,
2013-04-28 16:41:00,63.2,51.2,29.87,NW,322,0.0,3.0,65,0.00,,FEW029,0.00,VWS V14.01,2013-04-28 21:41:00,
2013-04-28 16:46:00,63.2,51.7,29.87,NW,322,0.0,2.0,66,0.00,,FEW029,0.00,VWS V14.01,2013-04-28 21:46:00,
2013-04-28 16:56:00,63.5,51.5,29.87,NNW,347,1.0,2.0,65,0.00,,OVC041,0.00,VWS V14.01,2013-04-28 21:56:00,
2013-04-28 17:01:00,63.5,51.5,29.87,NNW,347,0.0,1.0,65,0.00,,OVC041,0.00,VWS V14.01,2013-04-28 22:01:00,
2013-04-28 17:06:00,63.4,51.4,29.87,NNW,347,0.0,2.0,65,0.00,,OVC041,0.00,VWS V14.01,2013-04-28 22:06:00,
2013-04-28 17:11:00,63.2,51.7,29.87,North,351,0.0,2.0,66,0.00,,OVC041,0.00,VWS V14.01,2013-04-28 22:11:00,
2013-04-28 17:16:00,62.9,51.4,29.87,NE,55,1.0,2.0,66,0.00,,OVC041,0.00,VWS V14.01,2013-04-28 22:16:00,
2013-04-28 17:21:00,62.6,51.5,29.87,NE,55,0.0,4.0,67,0.00,,OVC041,0.00,VWS V14.01,2013-04-28 22:21:00,
2013-04-28 17:26:00,62.6,51.5,29.87,NE,55,1.0,2.0,67,0.00,,OVC041,0.00,VWS V14.01,2013-04-28 22:26:00,
2013-04-28 17:31:00,62.6,51.5,29.87,NE,55,1.0,2.0,67,0.00,,OVC041,0.00,VWS V14.01,2013-04-28 22:31:00,
2013-04-28 17:41:00,62.6,51.5,29.87,NE,55,3.0,3.0,67,0.00,,OVC041,0.00,VWS V14.01,2013-04-28 22:41:00,
2013-04-28 17:51:00,62.6,51.9,29.87,NE,55,2.0,2.0,68,0.00,,OVC039,0.00,VWS V14.01,2013-04-28 22:51:00,
2013-04-28 17:56:00,62.4,51.7,29.87,East,92,2.0,5.0,68,0.00,,OVC039,0.00,VWS V14.01,2013-04-28 22:56:00,
2013-04-28 18:06:00,62.3,51.6,29.88,East,93,3.0,5.0,68,0.00,,OVC039,0.00,VWS V14.01,2013-04-28 23:06:00,
2013-04-28 18:11:00,62.3,51.6,29.88,East,93,1.0,3.0,68,0.00,,OVC039,0.00,VWS V14.01,2013-04-28 23:11:00,
2013-04-28 18:16:00,62.3,51.6,29.88,East,93,0.0,1.0,68,0.00,,OVC039,0.00,VWS V14.01,2013-04-28 23:16:00,
2013-04-28 18:26:00,62.3,52.0,29.88,East,93,1.0,2.0,69,0.00,,OVC039,0.00,VWS V14.01,2013-04-28 23:26:00,
2013-04-28 18:31:00,62.1,51.4,29.88,East,93,0.0,3.0,68,0.00,,OVC039,0.00,VWS V14.01,2013-04-28 23:31:00,
2013-04-28 18:41:00,62.1,52.2,29.88,East,93,2.0,5.0,70,0.00,,OVC039,0.00,VWS V14.01,2013-04-28 23:41:00,
2013-04-28 18:46:00,62.0,52.1,29.87,East,93,2.0,3.0,70,0.00,,OVC039,0.00,VWS V14.01,2013-04-28 23:46:00,
2013-04-28 18:51:00,62.0,52.5,29.87,East,93,3.0,3.0,71,0.00,,OVC039,0.00,VWS V14.01,2013-04-28 23:51:00,
2013-04-28 19:01:00,61.8,53.4,29.87,ESE,103,0.0,5.0,74,0.00,,OVC039,0.00,VWS V14.01,2013-04-29 00:01:00,
2013-04-28 19:06:00,61.6,53.2,29.87,ESE,103,4.0,4.0,74,0.00,,OVC039,0.00,VWS V14.01,2013-04-29 00:06:00,
2013-04-28 19:11:00,61.5,53.2,29.87,ESE,103,3.0,4.0,74,0.00,,OVC039,0.00,VWS V14.01,2013-04-29 00:11:00,
2013-04-28 19:16:00,61.3,53.0,29.87,ESE,103,2.0,4.0,74,0.00,,OVC039,0.00,VWS V14.01,2013-04-29 00:16:00,
2013-04-28 19:26:00,61.3,53.3,29.87,ESE,107,1.0,3.0,75,0.00,,OVC039,0.00,VWS V14.01,2013-04-29 00:26:00,
2013-04-28 19:31:00,61.3,53.7,29.87,ESE,107,1.0,4.0,76,0.00,,OVC039,0.00,VWS V14.01,2013-04-29 00:31:00,
2013-04-28 19:41:00,61.0,53.0,29.87,ESE,107,1.0,4.0,75,0.00,,FEW041,0.00,VWS V14.01,2013-04-29 00:41:00,
2013-04-28 19:46:00,61.0,53.4,29.87,ESE,107,2.0,3.0,76,0.00,,FEW041,0.00,VWS V14.01,2013-04-29 00:46:00,
2013-04-28 19:56:00,60.9,53.3,29.87,ESE,108,2.0,2.0,76,0.00,,FEW041,0.00,VWS V14.01,2013-04-29 00:56:00,
2013-04-28 20:01:00,60.7,53.1,29.87,ESE,108,0.0,2.0,76,0.00,,FEW041,0.00,VWS V14.01,2013-04-29 01:01:00,
2013-04-28 20:11:00,60.4,53.2,29.87,ESE,108,0.0,0.0,77,0.00,,FEW041,0.00,VWS V14.01,2013-04-29 01:11:00,
2013-04-28 20:16:00,60.2,53.0,29.87,ESE,108,0.0,2.0,77,0.00,,FEW041,0.00,VWS V14.01,2013-04-29 01:16:00,
2013-04-28 20:26:00,59.8,53.3,29.87,ESE,108,0.0,3.0,79,0.00,,FEW041,0.00,VWS V14.01,2013-04-29 01:26:00,
2013-04-28 20:31:00,59.6,53.4,29.87,ESE,108,1.0,2.0,80,0.00,,FEW041,0.00,VWS V14.01,2013-04-29 01:31:00,
2013-04-28 20:36:00,59.3,53.1,29.87,ESE,108,0.0,2.0,80,0.00,,FEW041,0.00,VWS V14.01,2013-04-29 01:36:00,
2013-04-28 20:41:00,59.2,53.4,29.87,ESE,108,1.0,2.0,81,0.00,,FEW041,0.00,VWS V14.01,2013-04-29 01:41:00,
2013-04-28 20:46:00,59.0,53.5,29.87,ESE,108,0.0,2.0,82,0.00,,FEW041,0.00,VWS V14.01,2013-04-29 01:46:00,
2013-04-28 20:56:00,58.6,53.5,29.87,ESE,108,0.0,1.0,83,0.00,,CLR,0.00,VWS V14.01,2013-04-29 01:56:00,
2013-04-28 21:01:00,58.4,53.3,29.88,ESE,108,1.0,3.0,83,0.00,,CLR,0.00,VWS V14.01,2013-04-29 02:01:00,
2013-04-28 21:11:00,58.0,52.9,29.88,ESE,108,0.0,1.0,83,0.00,,CLR,0.00,VWS V14.01,2013-04-29 02:11:00,
2013-04-28 21:16:00,57.8,52.7,29.88,ESE,108,0.0,0.0,83,0.00,,CLR,0.00,VWS V14.01,2013-04-29 02:16:00,
2013-04-28 21:26:00,57.5,52.7,29.88,ESE,108,1.0,2.0,84,0.00,,CLR,0.00,VWS V14.01,2013-04-29 02:26:00,
2013-04-28 21:36:00,57.2,52.4,29.89,ESE,108,0.0,0.0,84,0.00,,CLR,0.00,VWS V14.01,2013-04-29 02:36:00,
2013-04-28 21:41:00,56.9,52.1,29.89,ESE,108,0.0,0.0,84,0.00,,CLR,0.00,VWS V14.01,2013-04-29 02:41:00,
2013-04-28 21:51:00,56.3,51.9,29.90,ESE,108,0.0,0.0,85,0.00,,CLR,0.00,VWS V14.01,2013-04-29 02:51:00,
2013-04-28 21:56:00,56.2,52.1,29.90,ESE,108,0.0,0.0,86,0.00,,CLR,0.00,VWS V14.01,2013-04-29 02:56:00,
2013-04-28 22:06:00,55.9,51.8,29.90,ESE,108,0.0,0.0,86,0.00,,CLR,0.00,VWS V14.01,2013-04-29 03:06:00,
2013-04-28 22:16:00,55.7,51.6,29.90,ESE,108,0.0,0.0,86,0.00,,CLR,0.00,VWS V14.01,2013-04-29 03:16:00,
2013-04-28 22:21:00,55.7,51.9,29.90,ESE,108,0.0,0.0,87,0.00,,CLR,0.00,VWS V14.01,2013-04-29 03:21:00,
2013-04-28 22:31:00,55.6,51.8,29.88,ESE,108,0.0,0.0,87,0.00,,CLR,0.00,VWS V14.01,2013-04-29 03:31:00,
2013-04-28 22:41:00,55.3,51.5,29.88,ESE,108,0.0,0.0,87,0.00,,CLR,0.00,VWS V14.01,2013-04-29 03:41:00,
2013-04-28 22:46:00,55.1,51.3,29.88,ESE,108,0.0,0.0,87,0.00,,CLR,0.00,VWS V14.01,2013-04-29 03:46:00,
2013-04-28 22:51:00,55.1,51.6,29.88,ESE,108,0.0,0.0,88,0.00,,CLR,0.00,VWS V14.01,2013-04-29 03:51:00,
2013-04-28 23:01:00,55.1,51.6,29.88,ESE,108,0.0,0.0,88,0.00,,CLR,0.00,VWS V14.01,2013-04-29 04:01:00,
2013-04-28 23:06:00,55.1,51.6,29.88,ESE,108,0.0,0.0,88,0.00,,CLR,0.00,VWS V14.01,2013-04-29 04:06:00,
2013-04-28 23:16:00,55.0,51.5,29.87,ESE,108,0.0,0.0,88,0.00,,CLR,0.00,VWS V14.01,2013-04-29 04:16:00,
2013-04-28 23:21:00,55.0,51.5,29.87,ESE,108,0.0,0.0,88,0.00,,CLR,0.00,VWS V14.01,2013-04-29 04:21:00,
2013-04-28 23:26:00,55.0,51.5,29.87,ESE,108,0.0,0.0,88,0.00,,CLR,0.00,VWS V14.01,2013-04-29 04:26:00,
2013-04-28 23:31:00,54.8,51.3,29.87,ESE,108,0.0,0.0,88,0.00,,CLR,0.00,VWS V14.01,2013-04-29 04:31:00,
2013-04-28 23:36:00,54.8,51.3,29.87,ESE,108,0.0,0.0,88,0.00,,CLR,0.00,VWS V14.01,2013-04-29 04:36:00,
2013-04-28 23:46:00,54.5,51.0,29.87,ESE,108,0.0,0.0,88,0.00,,CLR,0.00,VWS V14.01,2013-04-29 04:46:00,
2013-04-28 23:51:00,54.4,50.9,29.87,ESE,108,0.0,0.0,88,0.00,,CLR,0.00,VWS V14.01,2013-04-29 04:51:00,